Terminal Aerodrome Forecast
Issued by NWS Sterling, VA

Home | Current Version | Previous Version | Text Only | Print | Product List | Glossary On
Versions: 1 2 3 4 5 6 7 8 9 10 11 12 13 14 15 16 17 18 19 20 21 22 23 24 25 26 27 28 29 30 31 32 33 34 35 36 37 38 39 40 41 42 43 44 45 46 47 48 49 50
000
FTUS41 KLWX 221120
TAFIAD
TAF
KIAD 221120Z 2212/2318 32010G18KT P6SM BKN090
     FM221300 33011G19KT P6SM SCT030 BKN060
     FM221600 34010KT P6SM SCT060
     FM222300 32006KT P6SM FEW250
     FM230400 VRB03KT P6SM FEW250=

USA.gov is the U.S. government's official web portal to all federal, state and local government web resources and services.